Terminal Aerodrome Forecast
Issued by NWS

Home | Current Version | Previous Version | Graphics & Text | Print | Product List | Glossary On
Versions: 1 2 3 4 5 6 7 8 9 10 11 12 13 14 15 16 17 18
000
FTUS43 KBIS 201128
TAFMOT
TAF
KMOT 201128Z 2012/2112 12004KT P6SM FEW250
     FM201600 17009KT P6SM FEW250
     FM210100 15007KT P6SM SCT200
     FM210500 21009KT P6SM FEW250
     FM210700 27014G19KT P6SM FEW250 WS020/24035KT
     FM210800 28023G31KT P6SM FEW250 WS020/28045KT=

USA.gov is the U.S. government's official web portal to all federal, state and local government web resources and services.